Time;durP1;ratioP1;P1;durP2;ratioP2;P2;SDS_P1;SDS_P2;PMS_P1;PMS_P2;Temp;Humidity;BMP_temperature;BMP_pressure;BME280_temperature;BME280_humidity;BME280_pressure;Samples;Min_cycle;Max_cycle;Signal;HPM_P1;HPM_P2
2022/05/24 00:00:54;;;;;;;1999.90;999.90;;;;;;;16.28;100.00;94158.56;5097647;28;20183;-57
2022/05/24 00:03:20;;;;;;;1999.90;999.90;;;;;;;16.28;100.00;94158.56;5097273;28;20237;-58
2022/05/24 00:05:46;;;;;;;1999.90;999.90;;;;;;;16.22;100.00;94150.19;5097860;28;20248;-57
2022/05/24 00:08:11;;;;;;;1999.90;999.90;;;;;;;16.20;100.00;94157.41;5097627;28;20188;-57
2022/05/24 00:10:37;;;;;;;1999.90;999.90;;;;;;;16.30;100.00;94143.09;5097190;28;20241;-58
2022/05/24 00:13:03;;;;;;;1999.90;999.90;;;;;;;16.32;100.00;94142.63;5097411;28;20271;-58
2022/05/24 00:15:30;;;;;;;1999.90;999.90;;;;;;;16.30;100.00;94079.72;5097036;28;20208;-59
2022/05/24 00:18:21;;;;;;;1999.90;999.90;;;;;;;16.26;100.00;94073.66;5096825;28;20199;-57
2022/05/24 00:20:50;;;;;;;1999.90;999.90;;;;;;;16.21;100.00;94079.78;5115972;28;20204;-57
2022/05/24 00:23:16;;;;;;;1999.90;999.90;;;;;;;16.11;100.00;94078.31;5097493;28;20194;-58
2022/05/24 00:25:45;;;;;;;1999.90;999.90;;;;;;;16.10;100.00;94081.59;5096971;28;20188;-58
2022/05/24 00:28:11;;;;;;;1999.90;999.90;;;;;;;15.99;100.00;94082.09;5097020;28;20213;-59
2022/05/24 00:30:37;;;;;;;1999.90;999.90;;;;;;;15.94;100.00;94066.22;5096642;28;20227;-65
2022/05/24 00:33:02;;;;;;;1999.90;999.90;;;;;;;15.97;100.00;94073.56;5096820;28;20191;-57
2022/05/24 00:35:28;;;;;;;1999.90;999.90;;;;;;;16.02;100.00;94070.16;5096270;28;20275;-57
2022/05/24 00:37:53;;;;;;;1999.90;999.90;;;;;;;16.09;100.00;94064.28;5097121;28;20247;-59
2022/05/24 00:40:31;;;;;;;1999.90;999.90;;;;;;;16.15;100.00;94062.41;5097134;28;20179;-59
2022/05/24 00:42:57;;;;;;;1999.90;999.90;;;;;;;16.14;100.00;94066.38;5096682;28;20198;-58
2022/05/24 00:45:37;;;;;;;1999.90;999.90;;;;;;;16.11;100.00;94072.06;5096593;28;20183;-58
2022/05/24 00:48:12;;;;;;;1999.90;999.90;;;;;;;16.15;100.00;94072.66;5096524;28;20207;-58
2022/05/24 00:50:42;;;;;;;1999.90;999.90;;;;;;;16.16;100.00;94068.66;5096934;28;20207;-58
2022/05/24 00:53:20;;;;;;;1999.90;999.90;;;;;;;16.10;100.00;94076.81;5096986;28;20187;-61
2022/05/24 00:56:32;;;;;;;1999.90;999.90;;;;;;;16.15;100.00;94078.94;5096815;28;20248;-61
2022/05/24 00:59:00;;;;;;;1999.90;999.90;;;;;;;16.15;100.00;94078.16;5068166;28;20235;-61
2022/05/24 01:01:42;;;;;;;1999.90;999.90;;;;;;;16.14;100.00;94069.13;5096863;28;20187;-62
2022/05/24 01:04:13;;;;;;;1999.90;999.90;;;;;;;16.17;100.00;94078.44;5096164;28;20195;-62
2022/05/24 01:06:39;;;;;;;1999.90;999.90;;;;;;;16.16;100.00;94074.94;5096289;28;20191;-62
2022/05/24 01:09:09;;;;;;;1999.90;999.90;;;;;;;16.12;100.00;94071.59;5096356;28;20203;-58
2022/05/24 01:11:38;;;;;;;1999.90;999.90;;;;;;;16.15;100.00;94072.66;5096392;28;20187;-62
2022/05/24 01:14:07;;;;;;;1999.90;999.90;;;;;;;16.18;100.00;94077.22;5096243;28;20207;-63
2022/05/24 01:16:33;;;;;;;1999.90;999.90;;;;;;;16.22;100.00;94067.53;5096095;28;20203;-62
2022/05/24 01:18:59;;;;;;;1999.90;999.90;;;;;;;16.20;100.00;94078.28;5095893;28;20237;-62
2022/05/24 01:21:25;;;;;;;1999.90;999.90;;;;;;;16.18;100.00;94072.47;5096049;28;20192;-62
2022/05/24 01:24:12;;;;;;;1999.90;999.90;;;;;;;16.16;100.00;94063.91;5096168;28;20233;-62
2022/05/24 01:26:49;;;;;;;1999.90;999.90;;;;;;;16.11;100.00;94059.03;5096083;28;20195;-64
2022/05/24 01:29:14;;;;;;;1999.90;999.90;;;;;;;16.13;100.00;94053.84;5096336;28;20206;-63
2022/05/24 01:37:10;;;;;;;1999.90;999.90;;;;;;;16.14;100.00;94060.88;5114501;28;20183;-62
2022/05/24 01:39:36;;;;;;;1999.90;999.90;;;;;;;16.18;100.00;94064.19;5095559;28;20202;-63
2022/05/24 01:42:03;;;;;;;1999.90;999.90;;;;;;;16.04;100.00;94059.44;5096405;28;20181;-63
2022/05/24 01:44:48;;;;;;;1999.90;999.90;;;;;;;16.10;100.00;94054.03;5095740;28;20188;-63
2022/05/24 01:47:15;;;;;;;1999.90;999.90;;;;;;;16.09;100.00;94045.00;5113966;28;20228;-58
2022/05/24 01:49:45;;;;;;;1999.90;999.90;;;;;;;16.09;100.00;94052.50;5099498;28;20325;-58
2022/05/24 01:52:16;;;;;;;1999.90;999.90;;;;;;;16.10;100.00;94057.53;5117496;28;20176;-59
2022/05/24 01:54:45;;;;;;;1999.90;999.90;;;;;;;16.12;100.00;94049.56;5099675;28;20197;-58
2022/05/24 01:57:16;;;;;;;1999.90;999.90;;;;;;;16.10;100.00;94059.53;5099283;28;20200;-58
2022/05/24 01:59:44;;;;;;;1999.90;999.90;;;;;;;16.13;100.00;94055.81;5099478;28;20210;-58
2022/05/24 02:02:09;;;;;;;1999.90;999.90;;;;;;;16.15;100.00;94065.16;5099179;28;20283;-60
2022/05/24 02:04:35;;;;;;;1999.90;999.90;;;;;;;16.16;100.00;94052.91;5099263;28;20195;-61
2022/05/24 02:07:13;;;;;;;1999.90;999.90;;;;;;;16.13;100.00;94059.34;5099132;28;20247;-62
2022/05/24 02:09:42;;;;;;;1999.90;999.90;;;;;;;16.13;100.00;94053.84;5099024;28;20204;-62
2022/05/24 02:12:12;;;;;;;1999.90;999.90;;;;;;;16.15;100.00;94048.63;5099519;28;20180;-61
2022/05/24 02:14:44;;;;;;;1999.90;999.90;;;;;;;16.16;100.00;94049.38;5099195;28;20183;-62
2022/05/24 02:17:23;;;;;;;1999.90;999.90;;;;;;;16.09;100.00;94041.47;5099116;28;20207;-63
2022/05/24 02:19:52;;;;;;;1999.90;999.90;;;;;;;16.11;100.00;94044.53;5098524;28;20270;-65
2022/05/24 02:22:23;;;;;;;1999.90;999.90;;;;;;;16.07;100.00;93962.06;5098705;28;20263;-61
2022/05/24 02:24:56;;;;;;;1999.90;999.90;;;;;;;16.08;100.00;93787.34;5099273;28;20183;-58
2022/05/24 02:27:22;;;;;;;1999.90;999.90;;;;;;;16.06;100.00;93765.03;5098679;28;20180;-58
2022/05/24 02:29:47;;;;;;;1999.90;999.90;;;;;;;16.05;100.00;93760.75;5098738;28;20203;-59
2022/05/24 02:32:12;;;;;;;1999.90;999.90;;;;;;;16.12;100.00;93735.56;5098605;28;20252;-59
2022/05/24 02:34:38;;;;;;;1999.90;999.90;;;;;;;16.09;100.00;93725.50;5098957;28;20187;-59
2022/05/24 02:37:04;;;;;;;1999.90;999.90;;;;;;;16.09;100.00;93700.72;5098580;28;20186;-58
2022/05/24 02:39:29;;;;;;;1999.90;999.90;;;;;;;16.09;100.00;93579.53;5098557;28;20187;-62
2022/05/24 02:41:54;;;;;;;1999.90;999.90;;;;;;;16.10;100.00;93550.75;5098619;28;20187;-58
2022/05/24 02:44:20;;;;;;;1999.90;999.90;;;;;;;16.06;100.00;93492.38;5098537;28;20213;-58
2022/05/24 02:46:47;;;;;;;1999.90;999.90;;;;;;;16.09;100.00;93248.31;5098550;28;20172;-58
2022/05/24 02:49:13;;;;;;;1999.90;999.90;;;;;;;16.08;100.00;93231.06;5097971;28;20291;-58
2022/05/24 02:51:39;;;;;;;1999.90;999.90;;;;;;;16.11;100.00;93219.03;5098575;28;20184;-58
2022/05/24 02:54:07;;;;;;;1999.90;999.90;;;;;;;16.09;100.00;93207.75;5098264;28;20262;-58
2022/05/24 02:56:32;;;;;;;1999.90;999.90;;;;;;;16.04;100.00;93205.75;5097953;28;20187;-59
2022/05/24 02:58:57;;;;;;;1999.90;999.90;;;;;;;15.99;100.00;93206.44;5097749;28;20183;-65
2022/05/24 03:01:27;;;;;;;1999.90;999.90;;;;;;;16.01;100.00;93192.94;5098382;28;20196;-60
2022/05/24 03:03:54;;;;;;;1999.90;999.90;;;;;;;16.03;100.00;93190.44;5098244;28;20253;-60
2022/05/24 03:06:21;;;;;;;1999.90;999.90;;;;;;;15.98;100.00;93180.16;5098229;28;20186;-60
2022/05/24 03:14:14;;;;;;;1999.90;999.90;;;;;;;15.93;100.00;93186.41;5116495;28;20198;-61
2022/05/24 03:14:20;;;;;;;1999.90;999.90;;;;;;;15.95;100.00;93189.41;5116111;28;20183;-60
2022/05/24 03:16:52;;;;;;;1999.90;999.90;;;;;;;15.98;100.00;93188.44;5097782;28;20238;-59
2022/05/24 03:19:18;;;;;;;1999.90;999.90;;;;;;;15.98;100.00;93182.16;5098606;28;20232;-68
2022/05/24 03:21:43;;;;;;;1999.90;999.90;;;;;;;16.02;100.00;93188.94;5097580;28;20221;-67
2022/05/24 03:24:09;;;;;;;1999.90;999.90;;;;;;;16.02;100.00;93186.19;5098266;28;20184;-67
2022/05/24 03:26:35;;;;;;;1999.90;999.90;;;;;;;16.02;100.00;93188.94;5098310;28;20183;-67
2022/05/24 03:29:00;;;;;;;1999.90;999.90;;;;;;;16.00;100.00;93196.19;5115885;28;20237;-67
2022/05/24 03:31:26;;;;;;;1999.90;999.90;;;;;;;15.98;100.00;93188.44;5098002;28;20208;-66
2022/05/24 03:33:52;;;;;;;1999.90;999.90;;;;;;;15.95;100.00;93194.91;5097668;28;20241;-58
2022/05/24 03:36:19;;;;;;;1999.90;999.90;;;;;;;15.96;100.00;93193.66;5097874;28;20188;-64
2022/05/24 03:38:45;;;;;;;1999.90;999.90;;;;;;;15.96;100.00;93199.16;5097340;28;20236;-60
2022/05/24 03:41:10;;;;;;;1999.90;999.90;;;;;;;16.02;100.00;93205.47;5097510;28;20218;-61
2022/05/24 03:43:36;;;;;;;1999.90;999.90;;;;;;;15.95;100.00;93205.91;5097304;28;20194;-60
2022/05/24 03:46:08;;;;;;;1999.90;999.90;;;;;;;16.02;100.00;93199.19;5097992;28;20201;-60
2022/05/24 03:48:34;;;;;;;1999.90;999.90;;;;;;;15.93;100.00;93213.94;5097942;28;20273;-60
2022/05/24 03:50:59;;;;;;;1999.90;999.90;;;;;;;15.92;100.00;93212.41;5097639;28;20203;-60
2022/05/24 03:53:26;;;;;;;1999.90;999.90;;;;;;;15.91;100.00;93219.16;5097509;28;20190;-65
2022/05/24 03:55:52;;;;;;;1999.90;999.90;;;;;;;15.95;100.00;93225.19;5097484;28;20184;-59
2022/05/24 03:58:18;;;;;;;1999.90;999.90;;;;;;;15.95;100.00;93232.69;5097006;28;20183;-58
2022/05/24 04:00:44;;;;;;;1999.90;999.90;;;;;;;15.93;100.00;93235.97;5097558;28;20188;-58
2022/05/24 04:03:10;;;;;;;1999.90;999.90;;;;;;;15.93;100.00;93235.19;5097275;28;20245;-58
2022/05/24 04:05:36;;;;;;;1999.90;999.90;;;;;;;15.91;100.00;93238.44;5097166;28;20183;-58
2022/05/24 04:08:02;;;;;;;1999.90;999.90;;;;;;;15.90;100.00;93242.44;5097348;28;20241;-58
2022/05/24 04:10:29;;;;;;;1999.90;999.90;;;;;;;15.88;100.00;93250.41;5096075;28;20211;-58
2022/05/24 04:12:55;;;;;;;1999.90;999.90;;;;;;;15.92;100.00;93259.19;5097788;28;20184;-58
2022/05/24 04:15:20;;;;;;;1999.90;999.90;;;;;;;15.89;100.00;93257.44;5097860;28;20192;-59
2022/05/24 04:17:46;;;;;;;1999.90;999.90;;;;;;;15.96;100.00;93256.25;5097421;28;20199;-59
2022/05/24 04:20:13;;;;;;;1999.90;999.90;;;;;;;15.97;100.00;93261.25;5096887;28;20282;-61
2022/05/24 04:22:38;;;;;;;1999.90;999.90;;;;;;;15.94;100.00;93259.47;5096845;28;20195;-60
2022/05/24 04:25:05;;;;;;;1999.90;999.90;;;;;;;15.90;100.00;93261.72;5114835;28;20187;-60
2022/05/24 04:27:30;;;;;;;1999.90;999.90;;;;;;;15.91;100.00;93276.97;5096637;28;20194;-60
2022/05/24 04:29:56;;;;;;;1999.90;999.90;;;;;;;15.95;100.00;93272.00;5096611;28;20208;-61
2022/05/24 04:32:21;;;;;;;1999.90;999.90;;;;;;;15.91;100.00;93265.97;5096837;28;20176;-63
2022/05/24 04:34:47;;;;;;;1999.90;999.90;;;;;;;15.90;100.00;93269.97;5114816;28;20175;-62
2022/05/24 04:37:12;;;;;;;1999.90;999.90;;;;;;;15.94;100.00;93265.00;5096942;28;20184;-64
2022/05/24 04:39:38;;;;;;;1999.90;999.90;;;;;;;15.94;100.00;93278.75;5097088;28;20168;-63
2022/05/24 04:42:24;;;;;;;1999.90;999.90;;;;;;;15.90;100.00;93289.25;5096343;28;20205;-63
2022/05/24 04:44:52;;;;;;;1999.90;999.90;;;;;;;15.94;100.00;93297.25;5096627;28;20176;-63
2022/05/24 04:47:19;;;;;;;1999.90;999.90;;;;;;;15.92;100.00;93306.00;5096716;28;20180;-59
2022/05/24 04:49:49;;;;;;;1999.90;999.90;;;;;;;15.89;100.00;93312.47;5096377;28;20196;-58
2022/05/24 04:52:15;;;;;;;1999.90;999.90;;;;;;;15.88;100.00;93313.72;5096699;28;20184;-65
2022/05/24 04:54:42;;;;;;;1999.90;999.90;;;;;;;15.90;100.00;93318.75;5096447;28;20237;-65
2022/05/24 04:57:08;;;;;;;1999.90;999.90;;;;;;;15.95;100.00;93310.53;5096465;28;20187;-64
2022/05/24 04:59:34;;;;;;;1999.90;999.90;;;;;;;15.96;100.00;93312.03;5096699;28;20241;-65
2022/05/24 05:02:00;;;;;;;1999.90;999.90;;;;;;;15.99;100.00;93300.06;5095951;28;20188;-64
2022/05/24 05:04:25;;;;;;;1999.90;999.90;;;;;;;16.05;100.00;93300.09;5096433;28;20180;-66
2022/05/24 05:06:51;;;;;;;1999.90;999.90;;;;;;;16.09;100.00;93309.66;5096247;28;20208;-68
2022/05/24 05:09:17;;;;;;;1999.90;999.90;;;;;;;16.12;100.00;93305.94;5095997;28;20207;-60
2022/05/24 05:11:43;;;;;;;1999.90;999.90;;;;;;;16.12;100.00;93308.69;5096196;28;20203;-59
2022/05/24 05:14:09;;;;;;;1999.90;999.90;;;;;;;16.16;100.00;93303.72;5096198;28;20184;-59
2022/05/24 05:16:36;;;;;;;1999.90;999.90;;;;;;;16.16;100.00;93298.19;5095873;28;20265;-58
2022/05/24 05:19:03;;;;;;;1999.90;999.90;;;;;;;16.15;100.00;93302.19;5096453;28;20279;-58
2022/05/24 05:21:34;;;;;;;1999.90;999.90;;;;;;;16.17;100.00;93299.69;5097325;28;20187;-58
2022/05/24 05:24:00;;;;;;;1999.90;999.90;;;;;;;16.21;100.00;93305.00;5103141;28;20191;-58
2022/05/24 05:26:26;;;;;;;1999.90;999.90;;;;;;;16.18;100.00;93305.97;5102711;28;20254;-65
2022/05/24 05:28:52;;;;;;;1999.90;999.90;;;;;;;16.20;100.00;93303.47;5103142;28;20240;-58
2022/05/24 05:31:19;;;;;;;1999.90;999.90;;;;;;;16.21;100.00;93308.50;5102364;28;20294;-58
2022/05/24 05:33:47;;;;;;;1999.90;999.90;;;;;;;16.25;100.00;93314.53;5102710;28;20175;-58
2022/05/24 05:36:13;;;;;;;1999.90;999.90;;;;;;;16.28;100.00;93316.31;5102443;28;20177;-58
2022/05/24 05:38:44;;;;;;;1999.90;999.90;;;;;;;16.29;100.00;93315.06;5102584;28;20267;-58
2022/05/24 05:41:09;;;;;;;1999.90;999.90;;;;;;;16.32;100.00;93314.06;5102911;28;20297;-58
2022/05/24 05:43:34;;;;;;;1999.90;999.90;;;;;;;16.37;100.00;93318.13;5102492;28;20246;-62
2022/05/24 05:46:00;;;;;;;1999.90;999.90;;;;;;;16.39;100.00;93316.38;5102707;28;20171;-59
2022/05/24 05:48:26;;;;;;;1999.90;999.90;;;;;;;16.42;100.00;93319.44;5102803;28;20262;-60
2022/05/24 05:50:51;;;;;;;1999.90;999.90;;;;;;;16.50;100.00;93326.75;5102792;28;20217;-60
2022/05/24 05:53:19;;;;;;;1999.90;999.90;;;;;;;16.58;100.00;93318.78;5102236;28;20187;-60
2022/05/24 05:55:44;;;;;;;1999.90;999.90;;;;;;;16.56;100.00;93313.75;5102282;28;20172;-59
2022/05/24 05:58:10;;;;;;;1999.90;999.90;;;;;;;16.60;100.00;93319.06;5102304;28;20210;-59
2022/05/24 06:00:37;;;;;;;1999.90;999.90;;;;;;;16.75;100.00;93319.66;5102754;28;20183;-61
2022/05/24 06:03:03;;;;;;;1999.90;999.90;;;;;;;16.78;100.00;93327.66;5102197;28;20211;-61
2022/05/24 06:05:28;;;;;;;1999.90;999.90;;;;;;;16.90;100.00;93326.47;5102336;28;20203;-64
2022/05/24 06:07:55;;;;;;;1999.90;999.90;;;;;;;16.96;100.00;93330.03;5102025;28;20183;-64
2022/05/24 06:10:20;;;;;;;1999.90;999.90;;;;;;;17.06;100.00;93338.84;5119971;28;20244;-63
2022/05/24 06:12:47;;;;;;;1999.90;999.90;;;;;;;17.02;100.00;93333.56;5102148;28;20184;-64
2022/05/24 06:15:12;;;;;;;1999.90;999.90;;;;;;;17.04;100.00;93330.31;5102144;28;20183;-61
2022/05/24 06:17:45;;;;;;;1999.90;999.90;;;;;;;17.19;100.00;93330.88;5101864;28;20203;-62
2022/05/24 06:20:11;;;;;;;1999.90;999.90;;;;;;;17.25;100.00;93329.66;5102251;28;20183;-59
2022/05/24 06:22:36;;;;;;;1999.90;999.90;;;;;;;17.28;100.00;93338.94;5102130;28;20202;-60
2022/05/24 06:25:02;;;;;;;1999.90;999.90;;;;;;;17.28;100.00;93341.69;5101929;28;20183;-60
2022/05/24 06:27:27;;;;;;;1999.90;999.90;;;;;;;17.17;100.00;93344.41;5101911;28;20190;-60
2022/05/24 06:29:53;;;;;;;1999.90;999.90;;;;;;;17.10;100.00;93355.91;5102387;28;20200;-60
2022/05/24 06:32:18;;;;;;;1999.90;999.90;;;;;;;16.97;100.00;93364.63;5102111;28;20194;-61
2022/05/24 06:34:45;;;;;;;1999.90;999.90;;;;;;;16.90;100.00;93367.09;5098785;28;20184;-61
2022/05/24 06:37:10;;;;;;;1999.90;999.90;;;;;;;16.94;100.00;93364.84;5098457;28;20188;-58
2022/05/24 06:39:36;;;;;;;1999.90;999.90;;;;;;;16.88;100.00;93361.31;5098860;28;20198;-64
2022/05/24 06:42:01;;;;;;;1999.90;999.90;;;;;;;16.80;100.00;93360.25;5098175;28;20183;-57
2022/05/24 06:44:26;;;;;;;1999.90;999.90;;;;;;;16.74;100.00;93356.72;5098411;28;20292;-57
2022/05/24 06:46:52;;;;;;;1999.90;999.90;;;;;;;16.70;100.00;93364.44;5098216;28;20191;-55
2022/05/24 06:49:17;;;;;;;1999.90;999.90;;;;;;;16.71;100.00;93368.75;5098111;28;20306;-55
2022/05/24 06:51:43;;;;;;;1999.90;999.90;;;;;;;16.75;100.00;93370.00;5098748;28;20187;-56
2022/05/24 06:54:08;;;;;;;1999.90;999.90;;;;;;;16.80;100.00;93365.78;5098180;28;20222;-56
2022/05/24 06:56:34;;;;;;;1999.90;999.90;;;;;;;16.78;100.00;93374.53;5098095;28;20358;-65
2022/05/24 07:04:27;;;;;;;1999.90;999.90;;;;;;;16.67;100.00;93396.53;5116509;28;20198;-58
2022/05/24 07:06:52;;;;;;;1999.90;999.90;;;;;;;16.66;100.00;93405.28;5098637;28;20271;-59
2022/05/24 07:09:17;;;;;;;1999.90;999.90;;;;;;;16.65;100.00;93410.06;5097821;28;20298;-59
2022/05/24 07:11:43;;;;;;;1999.90;999.90;;;;;;;16.59;100.00;93405.72;5097847;28;20192;-58
2022/05/24 07:14:08;;;;;;;1999.90;999.90;;;;;;;16.64;100.00;93411.28;5098344;28;20184;-55
2022/05/24 07:16:33;;;;;;;1999.90;999.90;;;;;;;16.69;100.00;93415.31;5098342;28;20355;-58
2022/05/24 07:18:59;;;;;;;1999.90;999.90;;;;;;;16.71;100.00;93412.84;5097880;28;20196;-62
2022/05/24 07:21:24;;;;;;;1999.90;999.90;;;;;;;16.67;100.00;93417.84;5116304;28;20191;-62
2022/05/24 07:23:49;;;;;;;1999.90;999.90;;;;;;;16.68;100.00;93419.34;5097492;28;20279;-63
2022/05/24 07:26:21;;;;;;;1999.90;999.90;;;;;;;16.75;100.00;93419.63;5097956;28;20187;-61
2022/05/24 07:28:47;;;;;;;1999.90;999.90;;;;;;;16.66;100.00;93432.84;5098295;28;20204;-60
2022/05/24 07:31:12;;;;;;;1999.90;999.90;;;;;;;16.69;100.00;93421.59;5097562;28;20210;-60
2022/05/24 07:33:38;;;;;;;1999.90;999.90;;;;;;;16.79;100.00;93430.44;5098227;28;20202;-56
2022/05/24 07:36:05;;;;;;;1999.90;999.90;;;;;;;16.67;100.00;93443.38;5097608;28;20184;-61
2022/05/24 07:38:30;;;;;;;1999.90;999.90;;;;;;;16.56;100.00;93453.53;5097475;28;20205;-60
2022/05/24 07:46:24;;;;;;;1999.90;999.90;;;;;;;16.31;100.00;93480.63;5114274;28;20180;-60
2022/05/24 07:48:50;;;;;;;1999.90;999.90;;;;;;;16.28;100.00;93481.59;5097396;28;20188;-60
2022/05/24 07:51:15;;;;;;;1999.90;999.90;;;;;;;16.23;100.00;93484.28;5097225;28;20230;-56
2022/05/24 07:53:41;;;;;;;1999.90;999.90;;;;;;;16.20;100.00;93477.75;5098033;28;20187;-59
2022/05/24 07:56:07;;;;;;;1999.90;999.90;;;;;;;16.26;100.00;93484.09;5097353;28;20190;-59
2022/05/24 07:58:32;;;;;;;1999.90;999.90;;;;;;;16.21;100.00;93487.53;5097810;28;20217;-59
2022/05/24 08:00:58;;;;;;;1999.90;999.90;;;;;;;16.17;100.00;93492.50;5097040;28;20184;-60
2022/05/24 08:03:24;;;;;;;1999.90;999.90;;;;;;;16.12;100.00;93487.69;5097161;28;20190;-60
2022/05/24 08:05:50;;;;;;;1999.90;999.90;;;;;;;16.04;100.00;93511.41;5097137;28;20258;-59
2022/05/24 08:08:17;;;;;;;1999.90;999.90;;;;;;;16.03;100.00;93509.88;5095732;28;20183;-60
2022/05/24 08:10:43;;;;;;;1999.90;999.90;;;;;;;15.92;100.00;93504.22;5096945;28;20210;-59
2022/05/24 08:13:11;;;;;;;1999.90;999.90;;;;;;;15.91;100.00;93505.47;5096616;28;20180;-59
2022/05/24 08:15:37;;;;;;;1999.90;999.90;;;;;;;16.00;100.00;93502.56;5096785;28;20231;-59
2022/05/24 08:18:03;;;;;;;1999.90;999.90;;;;;;;15.99;100.00;93519.59;5096997;28;20261;-58
2022/05/24 08:20:29;;;;;;;1999.90;999.90;;;;;;;15.94;100.00;93523.78;5097605;28;20183;-58
2022/05/24 08:22:56;;;;;;;1999.90;999.90;;;;;;;15.98;100.00;93518.84;5096875;28;20198;-58
2022/05/24 08:25:22;;;;;;;1999.90;999.90;;;;;;;15.96;100.00;93526.06;5096666;28;20187;-58
2022/05/24 08:27:47;;;;;;;1999.90;999.90;;;;;;;16.03;100.00;93534.66;5097274;28;20184;-63
2022/05/24 08:30:15;;;;;;;1999.90;999.90;;;;;;;16.10;100.00;93536.97;5096825;28;20203;-59
2022/05/24 08:32:40;;;;;;;1999.90;999.90;;;;;;;16.01;100.00;93550.91;5096693;28;20203;-59
2022/05/24 08:35:07;;;;;;;1999.90;999.90;;;;;;;16.01;100.00;93550.91;5096327;28;20294;-59
2022/05/24 08:37:33;;;;;;;1999.90;999.90;;;;;;;16.01;100.00;93561.16;5096672;28;20255;-60
2022/05/24 08:39:59;;;;;;;1999.90;999.90;;;;;;;16.05;100.00;93556.19;5096516;28;20271;-59
2022/05/24 08:43:02;;;;;;;1999.90;999.90;;;;;;;15.96;100.00;93553.59;5096967;28;20195;-59
2022/05/24 08:48:28;;;;;;;1999.90;999.90;;;;;;;16.08;100.00;93545.00;5115175;28;20191;-60
2022/05/24 08:51:01;;;;;;;1999.90;999.90;;;;;;;16.12;100.00;93550.28;5097042;28;20200;-61
2022/05/24 08:53:46;;;;;;;1999.90;999.90;;;;;;;16.19;100.00;93545.13;5096534;28;20187;-60
2022/05/24 08:56:36;;;;;;;1999.90;999.90;;;;;;;16.20;100.00;93543.88;5095956;28;20190;-60
2022/05/24 08:59:04;;;;;;;1999.90;999.90;;;;;;;16.15;100.00;93560.34;5096260;28;20249;-60
2022/05/24 09:01:32;;;;;;;1999.90;999.90;;;;;;;16.14;100.00;93545.78;5096435;28;20191;-59
2022/05/24 09:04:04;;;;;;;1999.90;999.90;;;;;;;16.14;100.00;93545.78;5096417;28;20219;-62
2022/05/24 09:06:38;;;;;;;1999.90;999.90;;;;;;;16.08;100.00;93545.00;5096806;28;20180;-59
2022/05/24 09:09:28;;;;;;;1999.90;999.90;;;;;;;16.05;100.00;93540.44;5096639;28;20187;-58
2022/05/24 09:12:32;;;;;;;1999.90;999.90;;;;;;;16.04;100.00;93536.19;5086572;28;20196;-58
2022/05/24 09:15:16;;;;;;;1999.90;999.90;;;;;;;16.03;100.00;93526.38;5065659;28;20202;-58
2022/05/24 09:18:17;;;;;;;1999.90;999.90;;;;;;;16.01;100.00;93522.59;5095775;28;20248;-59
2022/05/24 09:20:44;;;;;;;1999.90;999.90;;;;;;;16.06;100.00;93524.66;5114093;28;20179;-58
2022/05/24 09:23:36;;;;;;;1999.90;999.90;;;;;;;16.16;100.00;93518.53;5096156;28;20188;-57
2022/05/24 09:26:03;;;;;;;1999.90;999.90;;;;;;;16.22;100.00;93508.31;5096114;28;20188;-58
2022/05/24 09:28:42;;;;;;;1999.90;999.90;;;;;;;16.28;100.00;93502.88;5096142;28;20190;-58
2022/05/24 09:31:09;;;;;;;1999.90;999.90;;;;;;;16.30;100.00;93509.41;5095841;28;20214;-58
2022/05/24 09:33:40;;;;;;;1999.90;999.90;;;;;;;16.26;100.00;93517.16;5096319;28;20214;-58
2022/05/24 09:36:05;;;;;;;1999.90;999.90;;;;;;;16.16;100.00;93518.53;5096315;28;20180;-58
2022/05/24 09:38:37;;;;;;;1999.90;999.90;;;;;;;16.14;100.00;93521.00;5096030;28;20187;-58
2022/05/24 09:41:16;;;;;;;1999.90;999.90;;;;;;;16.23;100.00;93520.88;5096208;28;20251;-58
2022/05/24 09:43:43;;;;;;;1999.90;999.90;;;;;;;16.26;100.00;93511.63;5096316;28;20195;-58
2022/05/24 09:46:22;;;;;;;1999.90;999.90;;;;;;;16.23;100.00;93526.38;5095685;28;20195;-57
2022/05/24 09:48:58;;;;;;;1999.90;999.90;;;;;;;16.26;100.00;93530.91;5095666;28;20228;-57
2022/05/24 09:51:34;;;;;;;1999.90;999.90;;;;;;;16.27;100.00;93524.16;5095974;28;20200;-56
2022/05/24 09:54:04;;;;;;;1999.90;999.90;;;;;;;16.17;100.00;93524.78;5095598;28;20183;-57
2022/05/24 09:56:33;;;;;;;1999.90;999.90;;;;;;;16.17;100.00;93525.56;5095784;28;20179;-52
2022/05/24 09:59:05;;;;;;;1999.90;999.90;;;;;;;16.16;100.00;93535.06;5095629;28;20192;-58
2022/05/24 10:01:37;;;;;;;1999.90;999.90;;;;;;;16.19;100.00;93531.34;5095550;28;20183;-57
2022/05/24 10:04:29;;;;;;;1999.90;999.90;;;;;;;16.39;100.00;93525.78;5095508;28;20199;-59
2022/05/24 10:07:02;;;;;;;1999.90;999.90;;;;;;;16.33;100.00;93524.97;5095569;28;20248;-58
2022/05/24 10:09:53;;;;;;;1999.90;999.90;;;;;;;16.41;100.00;93525.28;5097956;28;20207;-58
2022/05/24 10:12:43;;;;;;;1999.90;999.90;;;;;;;16.34;100.00;93523.72;5098802;28;20216;-59
2022/05/24 10:15:30;;;;;;;1999.90;999.90;;;;;;;16.30;100.00;93523.19;5099025;28;20188;-58
2022/05/24 10:17:58;;;;;;;1999.90;999.90;;;;;;;16.54;100.00;93505.66;5099047;28;20235;-59
2022/05/24 10:20:47;;;;;;;1999.90;999.90;;;;;;;16.56;100.00;93511.44;5098920;28;20191;-60
2022/05/24 10:23:30;;;;;;;1999.90;999.90;;;;;;;16.67;100.00;93495.00;5099355;28;20192;-59
2022/05/24 10:26:16;;;;;;;1999.90;999.90;;;;;;;16.66;100.00;93494.25;5098807;28;20195;-60
2022/05/24 10:28:41;;;;;;;1999.90;999.90;;;;;;;16.69;100.00;93503.53;5116990;28;20184;-60
2022/05/24 10:31:24;;;;;;;1999.90;999.90;;;;;;;16.53;100.00;93526.19;5098421;28;20200;-59
2022/05/24 10:40:21;;;;;;;1999.90;999.90;;;;;;;16.38;100.00;93523.50;5117080;28;20187;-57
2022/05/24 10:43:03;;;;;;;1999.90;999.90;;;;;;;16.30;100.00;93523.19;5098943;28;20191;-58
2022/05/24 10:45:52;;;;;;;1999.90;999.90;;;;;;;16.43;100.00;93512.56;5098450;28;20188;-55
2022/05/24 10:48:33;;;;;;;1999.90;999.90;;;;;;;16.50;100.00;93505.13;5098428;28;20209;-56
2022/05/24 10:51:32;;;;;;;1999.90;999.90;;;;;;;16.50;100.00;93507.88;5098914;28;20204;-58
2022/05/24 10:54:37;;;;;;;1999.90;999.90;;;;;;;16.60;100.00;93493.44;5098348;28;20184;-61
2022/05/24 10:57:14;;;;;;;1999.90;999.90;;;;;;;16.79;100.00;93502.13;5098370;28;20219;-61
2022/05/24 10:59:54;;;;;;;1999.90;999.90;;;;;;;16.83;100.00;93497.13;5098533;28;20244;-59
2022/05/24 11:02:28;;;;;;;1999.90;999.90;;;;;;;16.96;100.00;93486.44;5098490;28;20228;-58
2022/05/24 11:05:23;;;;;;;1999.90;999.90;;;;;;;17.15;100.00;93479.34;5098696;28;20188;-58
2022/05/24 11:07:56;;;;;;;1999.90;999.90;;;;;;;17.19;100.00;93477.84;5063839;28;20196;-58
2022/05/24 11:10:29;;;;;;;1999.90;999.90;;;;;;;17.04;100.00;93485.50;5098303;28;20219;-58
2022/05/24 11:13:01;;;;;;;1999.90;999.90;;;;;;;17.18;100.00;93479.09;5098043;28;20206;-58
2022/05/24 11:15:38;;;;;;;1999.90;999.90;;;;;;;17.24;100.00;93481.88;5098318;28;20282;-63
2022/05/24 11:18:16;;;;;;;1999.90;999.90;;;;;;;17.28;100.00;93465.84;5098485;28;20204;-59
2022/05/24 11:20:48;;;;;;;1999.90;999.90;;;;;;;17.18;100.00;93481.09;5098222;28;20199;-59
2022/05/24 11:23:22;;;;;;;1999.90;999.90;;;;;;;17.10;100.00;93488.31;5098500;28;20180;-56
2022/05/24 11:25:53;;;;;;;1999.90;999.90;;;;;;;17.03;100.00;93488.75;5097937;28;20214;-55
2022/05/24 11:28:32;;;;;;;1999.90;999.90;;;;;;;16.93;100.00;93484.69;5097587;28;20262;-57